Time;durP1;ratioP1;P1;durP2;ratioP2;P2;SDS_P1;SDS_P2;PMS_P1;PMS_P2;Temp;Humidity;BMP_temperature;BMP_pressure;BME280_temperature;BME280_humidity;BME280_pressure;Samples;Min_cycle;Max_cycle;Signal;HPM_P1;HPM_P2
2022/01/20 00:00:29;;;;;;;33.05;5.97;;;5.30;99.90;;;;;;5055437;28;20028;-90
2022/01/20 00:03:02;;;;;;;25.40;5.10;;;5.30;99.90;;;;;;5054605;28;20021;-90
2022/01/20 00:05:41;;;;;;;31.13;4.75;;;5.30;99.90;;;;;;5071361;28;20021;-90
2022/01/20 00:08:16;;;;;;;33.75;6.32;;;5.30;99.90;;;;;;5079531;28;20052;-90
2022/01/20 00:27:12;;;;;;;25.92;4.15;;;5.20;99.90;;;;;;5054589;28;20047;-90
2022/01/20 00:32:30;;;;;;;27.10;4.70;;;5.20;99.90;;;;;;5055013;28;20179;-90
2022/01/20 00:37:26;;;;;;;29.90;5.00;;;5.20;99.90;;;;;;5054681;28;20037;-90
2022/01/20 00:39:52;;;;;;;24.10;3.58;;;5.20;99.90;;;;;;5053362;28;20021;-90
2022/01/20 00:42:18;;;;;;;27.08;4.72;;;5.20;99.90;;;;;;5054288;28;20082;-90
2022/01/20 00:44:44;;;;;;;25.90;4.18;;;5.20;99.90;;;;;;5070038;28;20025;-90
2022/01/20 00:47:14;;;;;;;20.42;3.85;;;5.20;99.90;;;;;;5036838;28;20040;-90
2022/01/20 00:49:41;;;;;;;27.58;5.68;;;5.30;99.90;;;;;;5053594;28;20052;-90
2022/01/20 00:52:07;;;;;;;22.88;4.30;;;5.20;99.90;;;;;;5054070;28;20021;-90
2022/01/20 00:54:33;;;;;;;23.95;3.78;;;5.30;99.90;;;;;;5070356;28;20044;-90
2022/01/20 00:56:59;;;;;;;23.25;3.55;;;5.20;99.90;;;;;;5053428;28;20128;-90
2022/01/20 00:59:29;;;;;;;27.67;4.28;;;5.30;99.90;;;;;;5054536;28;20029;-90
2022/01/20 01:02:02;;;;;;;24.05;4.18;;;5.30;99.90;;;;;;5055162;28;20025;-89
2022/01/20 01:04:27;;;;;;;27.80;4.00;;;5.20;99.90;;;;;;5058577;28;20025;-89
2022/01/20 01:09:41;;;;;;;26.25;3.55;;;5.20;99.90;;;;;;5059569;28;20077;-89
2022/01/20 01:12:13;;;;;;;22.83;3.50;;;5.20;99.90;;;;;;5042823;28;20036;-89
2022/01/20 01:14:44;;;;;;;21.25;3.38;;;5.20;99.90;;;;;;5057448;28;20163;-90
2022/01/20 01:24:46;;;;;;;20.08;2.72;;;5.20;99.90;;;;;;5056515;28;20053;-90
2022/01/20 01:27:13;;;;;;;19.02;3.25;;;5.20;99.90;;;;;;5058063;28;20059;-89
2022/01/20 01:32:16;;;;;;;16.67;2.95;;;5.20;99.90;;;;;;5058012;28;20079;-90
2022/01/20 01:34:47;;;;;;;22.45;3.88;;;5.30;99.90;;;;;;5056810;28;20033;-89
2022/01/20 01:37:36;;;;;;;20.60;3.60;;;5.20;99.90;;;;;;5073401;28;20036;-89
2022/01/20 01:40:01;;;;;;;23.48;3.28;;;5.20;99.90;;;;;;5057540;28;20048;-89
2022/01/20 01:42:34;;;;;;;18.83;4.72;;;5.20;99.90;;;;;;5056862;28;20028;-89
2022/01/20 01:45:11;;;;;;;17.42;2.67;;;5.20;99.90;;;;;;5073666;28;20414;-89
2022/01/20 01:47:37;;;;;;;22.75;2.70;;;5.20;99.90;;;;;;5040806;28;20071;-89
2022/01/20 01:50:04;;;;;;;19.15;4.25;;;5.20;99.90;;;;;;5079294;28;20025;-91
2022/01/20 01:52:30;;;;;;;18.80;2.70;;;5.30;99.90;;;;;;5079654;28;20028;-90
2022/01/20 01:54:56;;;;;;;18.00;3.05;;;5.30;99.90;;;;;;5073533;28;20017;-90
2022/01/20 01:57:26;;;;;;;20.48;2.78;;;5.30;99.90;;;;;;5057344;28;20075;-89
2022/01/20 01:59:52;;;;;;;11.20;2.15;;;5.30;99.90;;;;;;5063909;28;20029;-89
2022/01/20 02:02:18;;;;;;;15.90;3.15;;;5.30;99.90;;;;;;5058645;28;20021;-90
2022/01/20 02:04:44;;;;;;;17.38;2.85;;;5.30;99.90;;;;;;5072424;28;20039;-90
2022/01/20 02:18:23;;;;;;;18.40;2.45;;;5.40;99.90;;;;;;5057481;28;20112;-90
2022/01/20 02:20:45;;;;;;;18.08;2.25;;;5.40;99.90;;;;;;5042477;28;20134;-90
2022/01/20 02:23:11;;;;;;;20.27;2.55;;;5.40;99.90;;;;;;5055794;28;20033;-90
2022/01/20 02:25:37;;;;;;;22.15;2.60;;;5.40;99.90;;;;;;5072044;28;20080;-89
2022/01/20 02:28:06;;;;;;;17.98;2.40;;;5.40;99.90;;;;;;5039275;28;20036;-89
2022/01/20 02:30:33;;;;;;;18.98;2.95;;;5.40;99.90;;;;;;5055910;28;20012;-90
2022/01/20 02:33:05;;;;;;;21.80;3.45;;;5.40;99.90;;;;;;5055916;28;20115;-88
2022/01/20 02:35:35;;;;;;;18.45;2.38;;;5.40;99.90;;;;;;5056336;28;20558;-90
2022/01/20 02:38:09;;;;;;;14.93;2.03;;;5.40;99.90;;;;;;5055559;28;20032;-89
2022/01/20 02:46:09;;;;;;;13.32;2.13;;;5.40;99.90;;;;;;5056271;28;20036;-94
2022/01/20 02:48:35;;;;;;;15.82;3.75;;;5.40;99.90;;;;;;5022253;28;20468;-90
2022/01/20 02:51:01;;;;;;;14.48;2.53;;;5.40;99.90;;;;;;5055643;28;20078;-89
2022/01/20 02:53:27;;;;;;;13.50;2.20;;;5.40;99.90;;;;;;5038939;28;20464;-89
2022/01/20 02:55:53;;;;;;;18.50;2.65;;;5.40;99.90;;;;;;5021712;28;20065;-89
2022/01/20 02:58:19;;;;;;;19.30;2.95;;;5.40;99.90;;;;;;5038577;28;20025;-90
2022/01/20 03:00:45;;;;;;;12.68;2.38;;;5.40;99.90;;;;;;5055593;28;20100;-89
2022/01/20 03:03:12;;;;;;;19.80;2.38;;;5.40;99.90;;;;;;5022145;28;20119;-90
2022/01/20 03:05:38;;;;;;;23.05;3.40;;;5.40;99.90;;;;;;5022414;28;20029;-89
2022/01/20 03:08:03;;;;;;;23.95;3.72;;;5.40;99.90;;;;;;5021814;28;20025;-88
2022/01/20 03:10:30;;;;;;;15.77;2.45;;;5.40;99.90;;;;;;5055973;28;20032;-88
2022/01/20 03:12:56;;;;;;;16.88;2.60;;;5.40;99.90;;;;;;5071566;28;20052;-90
2022/01/20 03:15:23;;;;;;;21.00;2.63;;;5.40;99.90;;;;;;5055033;28;20033;-89
2022/01/20 03:17:49;;;;;;;18.55;2.45;;;5.40;99.90;;;;;;5055664;28;20036;-89
2022/01/20 03:20:15;;;;;;;17.95;2.65;;;5.40;99.90;;;;;;5056496;28;20025;-90
2022/01/20 03:22:44;;;;;;;18.98;3.80;;;5.40;99.90;;;;;;5055105;28;20032;-90
2022/01/20 03:25:11;;;;;;;15.07;2.60;;;5.40;99.90;;;;;;5037344;28;20057;-90
2022/01/20 03:27:39;;;;;;;17.85;3.33;;;5.40;99.90;;;;;;5071253;28;20060;-90
2022/01/20 03:30:07;;;;;;;20.63;2.47;;;5.50;99.90;;;;;;5056090;28;20029;-89
2022/01/20 03:32:35;;;;;;;15.93;2.13;;;5.40;99.90;;;;;;5040257;28;20021;-90
2022/01/20 03:35:03;;;;;;;11.90;2.17;;;5.40;99.90;;;;;;5062757;28;20044;-89
2022/01/20 03:37:30;;;;;;;21.90;2.80;;;5.50;99.90;;;;;;5069145;28;20119;-90
2022/01/20 03:39:55;;;;;;;14.23;1.88;;;5.40;99.90;;;;;;5059526;28;20028;-89
2022/01/20 03:42:21;;;;;;;14.73;1.98;;;5.40;99.90;;;;;;5057209;28;20379;-90
2022/01/20 03:44:47;;;;;;;17.73;2.17;;;5.40;99.90;;;;;;5092719;28;20033;-89
2022/01/20 03:47:18;;;;;;;18.70;2.30;;;5.40;99.90;;;;;;5081844;28;20052;-91
2022/01/20 03:50:08;;;;;;;12.82;2.00;;;5.40;99.90;;;;;;5055548;28;20475;-89
2022/01/20 03:52:35;;;;;;;12.05;1.50;;;5.40;99.90;;;;;;5070831;28;20033;-89
2022/01/20 03:55:01;;;;;;;12.05;1.58;;;5.40;99.90;;;;;;5054358;28;20116;-90
2022/01/20 03:57:28;;;;;;;14.10;1.90;;;5.40;99.90;;;;;;5054035;28;20021;-89
2022/01/20 03:59:56;;;;;;;13.80;1.98;;;5.40;99.90;;;;;;5054402;28;20029;-89
2022/01/20 04:02:22;;;;;;;15.13;2.80;;;5.40;99.90;;;;;;5054952;28;20021;-90
2022/01/20 04:04:47;;;;;;;14.95;3.22;;;5.40;99.90;;;;;;5072971;28;20052;-88
2022/01/20 04:07:13;;;;;;;16.42;2.53;;;5.40;99.90;;;;;;5074334;28;20467;-89
2022/01/20 04:09:39;;;;;;;18.73;2.42;;;5.40;99.90;;;;;;5053878;28;20021;-89
2022/01/20 04:12:05;;;;;;;14.38;2.13;;;5.40;99.90;;;;;;5055270;28;20040;-89
2022/01/20 04:14:33;;;;;;;18.52;2.80;;;5.40;99.90;;;;;;5054010;28;20502;-88
2022/01/20 04:19:27;;;;;;;19.73;2.75;;;5.50;99.90;;;;;;5054961;28;20028;-89
2022/01/20 04:21:54;;;;;;;12.43;1.85;;;5.40;99.90;;;;;;5054861;28;20064;-88
2022/01/20 04:24:20;;;;;;;13.93;2.42;;;5.50;99.90;;;;;;5072823;28;20095;-90
2022/01/20 04:26:47;;;;;;;14.88;1.73;;;5.50;99.90;;;;;;5088335;28;20029;-88
2022/01/20 04:29:14;;;;;;;16.90;1.90;;;5.50;99.90;;;;;;5071802;28;20025;-88
2022/01/20 04:31:41;;;;;;;13.73;2.10;;;5.40;99.90;;;;;;5064180;28;20029;-89
2022/01/20 04:34:08;;;;;;;12.27;2.05;;;5.40;99.90;;;;;;5040082;28;20036;-88
2022/01/20 04:36:38;;;;;;;13.95;1.95;;;5.40;99.90;;;;;;5055488;28;20040;-89
2022/01/20 04:39:07;;;;;;;17.48;3.55;;;5.50;99.90;;;;;;5055485;28;20021;-89
2022/01/20 04:41:33;;;;;;;11.93;2.47;;;5.40;99.90;;;;;;5053489;28;20024;-89
2022/01/20 04:44:01;;;;;;;12.38;2.40;;;5.40;99.90;;;;;;5053694;28;20036;-89
2022/01/20 04:59:34;;;;;;;10.73;1.83;;;5.50;99.90;;;;;;5054244;28;20033;-89
2022/01/20 05:02:00;;;;;;;11.40;2.40;;;5.40;99.90;;;;;;5053322;28;20135;-89
2022/01/20 05:04:26;;;;;;;18.13;2.58;;;5.40;99.90;;;;;;5069283;28;20029;-90
2022/01/20 05:06:55;;;;;;;12.27;2.20;;;5.40;99.90;;;;;;5053378;28;20033;-88
2022/01/20 05:09:22;;;;;;;14.27;1.85;;;5.50;99.90;;;;;;5053114;28;20467;-90
2022/01/20 05:11:57;;;;;;;12.38;1.73;;;5.40;99.90;;;;;;5070073;28;20025;-89
2022/01/20 05:14:23;;;;;;;10.73;1.77;;;5.50;99.90;;;;;;5053408;28;20021;-91
2022/01/20 05:16:51;;;;;;;14.98;1.92;;;5.40;99.90;;;;;;5070346;28;20455;-90
2022/01/20 05:19:17;;;;;;;20.65;2.08;;;5.50;99.90;;;;;;5054229;28;20092;-89
2022/01/20 05:21:43;;;;;;;11.68;1.88;;;5.40;99.90;;;;;;5069321;28;20029;-91
2022/01/20 05:24:08;;;;;;;17.17;1.80;;;5.40;99.90;;;;;;5069260;28;20021;-89
2022/01/20 05:26:34;;;;;;;13.07;1.83;;;5.40;99.90;;;;;;5069895;28;20025;-89
2022/01/20 05:29:00;;;;;;;19.67;2.53;;;5.50;99.90;;;;;;5070524;28;20084;-89
2022/01/20 05:31:26;;;;;;;18.30;2.38;;;5.50;99.90;;;;;;5056560;28;20076;-90
2022/01/20 05:33:51;;;;;;;15.35;2.90;;;5.40;99.90;;;;;;5075798;28;20021;-89
2022/01/20 05:36:17;;;;;;;21.27;2.95;;;5.50;99.90;;;;;;5071820;28;20017;-90
2022/01/20 05:38:43;;;;;;;17.60;3.55;;;5.40;99.90;;;;;;5053416;28;20116;-89
2022/01/20 05:41:08;;;;;;;20.67;2.55;;;5.40;99.90;;;;;;5074367;28;20459;-89
2022/01/20 05:43:36;;;;;;;14.93;2.53;;;5.40;99.90;;;;;;5058178;28;20119;-90
2022/01/20 05:46:04;;;;;;;17.27;2.72;;;5.40;99.90;;;;;;5069956;28;20059;-89
2022/01/20 05:48:34;;;;;;;13.18;2.20;;;5.40;99.90;;;;;;5072233;28;20032;-90
2022/01/20 05:51:01;;;;;;;22.55;3.25;;;5.40;99.90;;;;;;5057832;28;20033;-89
2022/01/20 05:53:27;;;;;;;22.08;3.63;;;5.40;99.90;;;;;;5056698;28;20021;-91
2022/01/20 05:55:55;;;;;;;23.67;2.95;;;5.40;99.90;;;;;;5056460;28;20032;-89
2022/01/20 05:58:21;;;;;;;16.05;3.03;;;5.40;99.90;;;;;;5072455;28;20013;-91
2022/01/20 06:00:47;;;;;;;17.52;2.72;;;5.40;99.90;;;;;;5072375;28;20600;-89
2022/01/20 06:06:00;;;;;;;19.88;2.67;;;5.30;99.90;;;;;;5056546;28;20087;-90
2022/01/20 06:08:26;;;;;;;16.13;2.97;;;5.30;99.90;;;;;;5071855;28;20029;-90
2022/01/20 06:10:52;;;;;;;21.83;3.20;;;5.30;99.90;;;;;;5071299;28;20079;-90
2022/01/20 06:13:18;;;;;;;15.65;3.42;;;5.40;99.90;;;;;;5071865;28;20029;-90
2022/01/20 06:15:44;;;;;;;20.02;3.00;;;5.30;99.90;;;;;;5072976;28;20025;-87
2022/01/20 06:18:12;;;;;;;17.02;3.10;;;5.30;99.90;;;;;;5056987;28;20021;-94
2022/01/20 06:20:39;;;;;;;16.52;2.40;;;5.30;99.90;;;;;;5055696;28;20021;-90
2022/01/20 06:23:06;;;;;;;14.07;2.40;;;5.30;99.90;;;;;;5039096;28;20383;-89
2022/01/20 06:25:33;;;;;;;17.40;2.78;;;5.30;99.90;;;;;;5056712;28;20049;-89
2022/01/20 06:27:58;;;;;;;15.05;2.35;;;5.30;99.90;;;;;;5056832;28;20021;-90
2022/01/20 06:30:25;;;;;;;22.38;3.25;;;5.30;99.90;;;;;;5055895;28;20021;-90
2022/01/20 06:32:51;;;;;;;22.85;4.38;;;5.30;99.90;;;;;;5071867;28;20166;-89
2022/01/20 06:35:17;;;;;;;19.50;3.85;;;5.30;99.90;;;;;;5057060;28;20032;-90
2022/01/20 06:37:43;;;;;;;12.60;2.40;;;5.30;99.90;;;;;;5055930;28;20032;-89
2022/01/20 06:40:10;;;;;;;17.60;2.90;;;5.20;99.90;;;;;;5056015;28;20112;-89
2022/01/20 06:42:36;;;;;;;16.38;2.95;;;5.20;99.90;;;;;;5055323;28;20103;-89
2022/01/20 06:45:07;;;;;;;22.95;2.70;;;5.20;99.90;;;;;;5071987;28;20059;-89
2022/01/20 06:47:40;;;;;;;17.98;2.67;;;5.20;99.90;;;;;;5054206;28;20083;-91
2022/01/20 06:50:08;;;;;;;9.80;1.92;;;5.20;99.90;;;;;;5071035;28;20036;-90
2022/01/20 06:52:35;;;;;;;15.98;2.75;;;5.10;99.90;;;;;;5054794;28;20061;-94
2022/01/20 06:55:05;;;;;;;21.05;2.83;;;5.10;99.90;;;;;;5054908;28;20033;-91
2022/01/20 06:57:31;;;;;;;18.70;2.72;;;5.10;99.90;;;;;;5056659;28;20029;-90
2022/01/20 06:59:56;;;;;;;19.10;2.88;;;5.10;99.90;;;;;;5058168;28;20078;-89
2022/01/20 07:02:23;;;;;;;16.30;2.35;;;5.10;99.90;;;;;;5070598;28;20037;-90
2022/01/20 07:04:50;;;;;;;15.00;2.20;;;5.10;99.90;;;;;;5078378;28;20116;-91
2022/01/20 07:07:16;;;;;;;10.05;1.70;;;5.10;99.90;;;;;;5040615;28;20490;-91
2022/01/20 07:09:42;;;;;;;17.73;2.45;;;5.00;99.90;;;;;;5064645;28;20021;-90
2022/01/20 07:12:10;;;;;;;10.85;2.05;;;5.00;99.90;;;;;;5063077;28;20107;-89
2022/01/20 07:14:36;;;;;;;13.75;1.80;;;5.00;99.90;;;;;;5056327;28;20063;-89
2022/01/20 07:17:02;;;;;;;9.32;1.88;;;5.00;99.90;;;;;;5055446;28;20026;-89
2022/01/20 07:19:28;;;;;;;14.07;3.30;;;4.90;99.90;;;;;;5071651;28;20120;-91
2022/01/20 07:21:53;;;;;;;17.90;1.98;;;5.00;99.90;;;;;;5054564;28;20057;-89
2022/01/20 07:24:19;;;;;;;14.35;2.08;;;4.90;99.90;;;;;;5070564;28;20052;-91
2022/01/20 07:26:45;;;;;;;18.52;2.38;;;4.90;99.90;;;;;;5038122;28;20021;-90
2022/01/20 07:29:11;;;;;;;12.85;2.05;;;4.90;99.90;;;;;;5055848;28;20025;-89
2022/01/20 07:31:37;;;;;;;12.77;2.33;;;4.90;99.90;;;;;;5056580;28;20025;-90
2022/01/20 07:34:03;;;;;;;14.48;2.10;;;4.90;99.90;;;;;;5072380;28;20025;-90
2022/01/20 07:36:28;;;;;;;7.63;1.63;;;4.90;99.90;;;;;;5057524;28;20053;-90
2022/01/20 07:38:54;;;;;;;12.70;2.38;;;4.90;99.90;;;;;;5056423;28;20029;-89
2022/01/20 07:41:20;;;;;;;12.52;1.85;;;4.80;99.90;;;;;;5072300;28;20021;-91
2022/01/20 07:43:46;;;;;;;14.35;1.75;;;4.80;99.90;;;;;;5063329;28;20024;-89
2022/01/20 07:46:12;;;;;;;10.75;3.05;;;4.80;99.90;;;;;;5074352;28;20089;-89
2022/01/20 07:48:40;;;;;;;12.20;1.98;;;4.80;99.90;;;;;;5072426;28;20032;-90
2022/01/20 07:51:09;;;;;;;10.35;2.33;;;4.80;99.90;;;;;;5056020;28;20025;-90
2022/01/20 07:53:35;;;;;;;18.05;2.05;;;4.80;99.90;;;;;;5072971;28;20028;-91
2022/01/20 07:56:01;;;;;;;9.25;1.98;;;4.80;99.90;;;;;;5054842;28;20029;-90
2022/01/20 07:58:30;;;;;;;13.93;2.38;;;4.80;99.90;;;;;;5053904;28;20479;-87
2022/01/20 08:00:55;;;;;;;12.10;1.70;;;4.80;99.90;;;;;;5070768;28;20017;-88
2022/01/20 08:03:21;;;;;;;15.38;2.50;;;4.80;99.90;;;;;;5055288;28;20100;-89
2022/01/20 08:05:49;;;;;;;11.18;1.60;;;4.80;99.90;;;;;;5055212;28;20406;-89
2022/01/20 08:08:15;;;;;;;16.25;2.35;;;4.80;99.90;;;;;;5055693;28;20036;-88
2022/01/20 08:10:43;;;;;;;14.52;2.33;;;4.80;99.90;;;;;;5055208;28;20057;-88
2022/01/20 08:13:09;;;;;;;12.63;2.45;;;4.80;99.90;;;;;;5054203;28;20098;-87
2022/01/20 08:15:35;;;;;;;13.90;2.03;;;4.80;99.90;;;;;;5070237;28;20036;-88
2022/01/20 08:18:01;;;;;;;15.85;2.10;;;4.80;99.90;;;;;;5036538;28;20025;-88
2022/01/20 08:20:26;;;;;;;12.88;2.53;;;4.80;99.90;;;;;;5054458;28;20086;-88
2022/01/20 08:22:52;;;;;;;12.55;3.28;;;4.80;99.90;;;;;;5054338;28;20071;-88
2022/01/20 08:25:22;;;;;;;11.00;1.88;;;4.80;99.90;;;;;;5019020;28;20055;-88
2022/01/20 08:27:48;;;;;;;14.83;1.77;;;4.90;99.90;;;;;;5052935;28;20052;-88
2022/01/20 08:30:17;;;;;;;13.32;3.05;;;4.80;99.90;;;;;;5054178;28;20283;-89
2022/01/20 08:32:44;;;;;;;12.70;2.28;;;4.80;99.90;;;;;;5053748;28;20029;-88
2022/01/20 08:35:12;;;;;;;12.10;2.05;;;4.90;99.90;;;;;;5053414;28;20124;-87
2022/01/20 08:37:40;;;;;;;16.35;2.42;;;4.90;99.90;;;;;;5052310;28;20123;-88
2022/01/20 08:40:14;;;;;;;15.57;2.13;;;4.90;99.90;;;;;;5052861;28;20033;-88
2022/01/20 08:42:45;;;;;;;9.93;1.80;;;4.90;99.90;;;;;;5058805;28;20017;-88
2022/01/20 08:45:13;;;;;;;11.40;2.88;;;4.90;99.90;;;;;;5067868;28;20025;-88
2022/01/20 08:47:42;;;;;;;12.60;1.75;;;4.80;99.90;;;;;;5066417;28;20029;-88
2022/01/20 08:50:10;;;;;;;11.43;1.77;;;4.90;99.90;;;;;;5058125;28;20440;-88
2022/01/20 08:52:36;;;;;;;14.18;1.90;;;4.90;99.90;;;;;;5070274;28;20021;-88
2022/01/20 08:55:04;;;;;;;13.30;2.45;;;4.90;99.90;;;;;;5069988;28;20498;-88
2022/01/20 08:57:29;;;;;;;13.23;2.05;;;4.90;99.90;;;;;;5070290;28;20021;-88
2022/01/20 08:59:56;;;;;;;12.40;2.08;;;5.00;99.90;;;;;;5053296;28;20040;-90
2022/01/20 09:02:22;;;;;;;13.60;2.08;;;5.00;99.90;;;;;;5052867;28;20021;-88
2022/01/20 09:04:48;;;;;;;13.05;2.25;;;5.00;99.90;;;;;;5052857;28;20021;-86
2022/01/20 09:07:15;;;;;;;11.70;2.28;;;5.00;99.90;;;;;;5053937;28;20029;-88
2022/01/20 09:09:43;;;;;;;17.23;2.65;;;5.10;99.90;;;;;;5054200;28;20116;-88
2022/01/20 09:17:20;;;;;;;11.90;2.25;;;5.10;99.90;;;;;;5068493;28;20040;-87
2022/01/20 09:19:46;;;;;;;14.30;2.42;;;5.10;99.90;;;;;;5055040;28;20386;-88
2022/01/20 09:22:12;;;;;;;17.50;2.40;;;5.10;99.90;;;;;;5070744;28;20383;-88
2022/01/20 09:24:38;;;;;;;15.68;2.80;;;5.00;99.90;;;;;;5081554;28;20041;-87
2022/01/20 09:27:04;;;;;;;14.10;2.35;;;4.90;99.90;;;;;;5068177;28;20033;-87
2022/01/20 09:29:30;;;;;;;13.43;2.10;;;4.80;99.90;;;;;;5074497;28;20036;-86
2022/01/20 09:31:56;;;;;;;15.18;1.90;;;4.80;99.90;;;;;;5039753;28;20155;-89
2022/01/20 09:34:24;;;;;;;12.65;2.60;;;4.70;99.90;;;;;;5073029;28;20025;-88
2022/01/20 09:36:50;;;;;;;13.98;2.35;;;4.70;99.90;;;;;;5056605;28;20021;-86
2022/01/20 09:39:15;;;;;;;16.35;2.38;;;4.70;99.90;;;;;;5058057;28;20063;-88
2022/01/20 09:41:44;;;;;;;14.18;2.45;;;4.70;99.90;;;;;;5056714;28;20029;-88
2022/01/20 09:44:09;;;;;;;17.75;2.15;;;4.70;99.90;;;;;;5055400;28;20024;-87
2022/01/20 09:46:35;;;;;;;10.88;1.63;;;4.70;99.90;;;;;;5072292;28;20033;-87
2022/01/20 09:49:01;;;;;;;14.90;2.60;;;4.70;99.90;;;;;;5072233;28;20025;-87
2022/01/20 09:51:27;;;;;;;14.13;2.10;;;4.70;99.90;;;;;;5039546;28;20049;-87
2022/01/20 09:53:53;;;;;;;13.05;1.80;;;4.70;99.90;;;;;;5072411;28;20398;-88
2022/01/20 09:56:20;;;;;;;13.55;2.00;;;4.80;99.90;;;;;;5039957;28;20029;-88
2022/01/20 09:58:46;;;;;;;13.65;1.83;;;4.70;99.90;;;;;;5056365;28;20032;-87
2022/01/20 10:01:11;;;;;;;10.57;1.88;;;4.80;99.90;;;;;;5057149;28;20025;-87
2022/01/20 10:03:38;;;;;;;13.23;2.42;;;4.80;99.90;;;;;;5040134;28;20025;-89
2022/01/20 10:06:05;;;;;;;11.98;2.45;;;4.90;99.90;;;;;;5057916;28;20029;-89
2022/01/20 10:08:35;;;;;;;17.60;2.95;;;5.00;99.90;;;;;;5056566;28;20052;-90
2022/01/20 10:11:07;;;;;;;12.82;1.80;;;5.00;99.90;;;;;;5057348;28;20049;-93
2022/01/20 10:13:42;;;;;;;11.02;2.00;;;5.00;99.90;;;;;;5058389;28;20017;-90
2022/01/20 10:16:11;;;;;;;13.15;2.28;;;5.00;99.90;;;;;;5056626;28;20043;-89
2022/01/20 10:18:57;;;;;;;14.38;2.33;;;5.10;99.90;;;;;;5056662;28;20025;-90
2022/01/20 10:21:31;;;;;;;14.85;2.67;;;5.10;99.90;;;;;;5061155;28;20025;-89
2022/01/20 10:24:08;;;;;;;17.85;2.35;;;5.10;99.90;;;;;;5060830;28;20048;-94
2022/01/20 10:26:35;;;;;;;14.73;3.33;;;5.20;99.90;;;;;;5078804;28;20020;-89
2022/01/20 10:29:05;;;;;;;13.32;2.45;;;5.20;99.90;;;;;;5070743;28;20460;-88
2022/01/20 10:31:40;;;;;;;19.95;3.63;;;5.30;99.90;;;;;;5077140;28;20021;-88
2022/01/20 10:34:30;;;;;;;17.30;2.72;;;5.30;99.90;;;;;;5077463;28;20027;-92
2022/01/20 10:37:00;;;;;;;15.52;2.95;;;5.40;99.90;;;;;;5065092;28;20123;-89
2022/01/20 10:39:34;;;;;;;17.38;3.00;;;5.40;99.90;;;;;;5056514;28;20048;-87
2022/01/20 10:42:22;;;;;;;16.63;3.03;;;5.50;99.90;;;;;;5057244;28;20131;-88
2022/01/20 10:44:50;;;;;;;22.48;2.83;;;5.50;99.90;;;;;;5054888;28;20033;-88
2022/01/20 10:47:21;;;;;;;15.27;2.15;;;5.50;99.90;;;;;;5054820;28;20099;-87
2022/01/20 10:49:48;;;;;;;12.00;2.50;;;5.50;99.90;;;;;;5072040;28;20025;-88
2022/01/20 10:52:16;;;;;;;12.40;2.78;;;5.60;99.90;;;;;;5038593;28;20032;-88
2022/01/20 10:54:45;;;;;;;11.70;2.20;;;5.60;99.90;;;;;;5055462;28;20075;-88
2022/01/20 10:57:15;;;;;;;13.43;2.53;;;5.50;99.90;;;;;;5054790;28;20013;-88
2022/01/20 10:59:52;;;;;;;15.75;2.92;;;5.60;99.90;;;;;;5054760;28;20043;-88
2022/01/20 11:02:23;;;;;;;18.98;2.85;;;5.60;99.90;;;;;;5054878;28;20021;-89
2022/01/20 11:04:48;;;;;;;;;;;5.60;99.90;;;;;;5056652;28;20052;-88
2022/01/20 11:07:16;;;;;;;10.23;2.17;;;5.60;99.90;;;;;;5056048;28;20244;-87
2022/01/20 11:09:45;;;;;;;14.43;2.30;;;5.70;99.90;;;;;;5037822;28;20025;-87
2022/01/20 11:12:17;;;;;;;16.73;2.33;;;5.70;99.90;;;;;;5055826;28;20021;-87
2022/01/20 11:14:46;;;;;;;12.48;3.13;;;5.70;99.90;;;;;;5070877;28;20040;-87
2022/01/20 11:17:40;;;;;;;10.30;2.15;;;5.80;99.90;;;;;;5054149;28;20040;-89
2022/01/20 11:20:08;;;;;;;15.02;3.55;;;5.90;99.90;;;;;;5068784;28;20051;-88
2022/01/20 11:22:35;;;;;;;17.80;3.05;;;5.90;99.90;;;;;;5054579;28;20032;-88
2022/01/20 11:25:05;;;;;;;16.73;2.60;;;6.00;99.90;;;;;;5054103;28;20049;-89
2022/01/20 11:28:00;;;;;;;15.80;2.22;;;6.10;99.90;;;;;;5054914;28;20025;-92
2022/01/20 11:30:26;;;;;;;14.65;2.08;;;6.10;99.90;;;;;;5055065;28;20021;-89
2022/01/20 11:33:00;;;;;;;15.10;2.13;;;6.10;99.90;;;;;;5070450;28;20115;-91
2022/01/20 11:35:42;;;;;;;14.18;2.50;;;6.20;99.90;;;;;;5055740;28;20028;-89
2022/01/20 11:38:11;;;;;;;16.15;2.35;;;6.30;99.90;;;;;;5056124;28;20029;-90
2022/01/20 11:40:51;;;;;;;10.00;2.22;;;6.30;99.90;;;;;;5055286;28;20013;-88
2022/01/20 11:43:18;;;;;;;15.73;3.58;;;6.50;99.90;;;;;;5055876;28;20017;-91
2022/01/20 11:45:50;;;;;;;15.43;2.30;;;6.50;99.90;;;;;;5069803;28;20029;-91
2022/01/20 11:48:22;;;;;;;13.43;2.33;;;6.60;99.90;;;;;;5055351;28;20386;-91
2022/01/20 11:51:05;;;;;;;10.75;2.13;;;6.70;99.90;;;;;;5054518;28;20028;-90
2022/01/20 11:53:30;;;;;;;10.73;1.67;;;6.70;99.90;;;;;;5055133;28;20025;-89
2022/01/20 11:55:57;;;;;;;15.23;1.75;;;6.80;99.90;;;;;;5038279;28;20040;-91
2022/01/20 11:58:26;;;;;;;11.82;1.90;;;6.70;99.90;;;;;;5055621;28;20036;-90
2022/01/20 12:00:59;;;;;;;7.97;1.75;;;6.60;99.90;;;;;;5071091;28;20021;-90
2022/01/20 12:03:25;;;;;;;11.98;1.77;;;6.70;99.90;;;;;;5054443;28;20080;-89
2022/01/20 12:06:12;;;;;;;11.00;2.13;;;6.60;99.90;;;;;;5054389;28;20037;-90
2022/01/20 12:08:58;;;;;;;6.45;1.30;;;6.60;99.90;;;;;;5055552;28;20475;-90
2022/01/20 12:11:40;;;;;;;6.10;1.23;;;6.60;99.90;;;;;;5054472;28;20118;-90
2022/01/20 12:14:07;;;;;;;8.32;1.45;;;6.60;99.90;;;;;;5055138;28;20055;-91
2022/01/20 12:16:33;;;;;;;6.50;1.00;;;6.50;99.90;;;;;;5054370;28;20098;-90
2022/01/20 12:19:00;;;;;;;3.83;0.90;;;6.50;99.90;;;;;;5055058;28;20025;-91
2022/01/20 12:21:28;;;;;;;8.63;1.20;;;6.40;99.90;;;;;;5053634;28;20017;-89
2022/01/20 12:23:57;;;;;;;7.10;1.25;;;6.30;99.90;;;;;;5055078;28;20051;-91
2022/01/20 12:26:24;;;;;;;10.57;2.70;;;6.40;99.90;;;;;;5055504;28;20037;-89
2022/01/20 12:29:05;;;;;;;6.03;1.63;;;6.40;99.90;;;;;;5021235;28;20117;-90
2022/01/20 12:31:49;;;;;;;8.05;1.45;;;6.50;99.90;;;;;;5070875;28;20017;-92
2022/01/20 12:34:16;;;;;;;12.48;2.28;;;6.70;99.90;;;;;;5055595;28;20052;-90
2022/01/20 12:36:52;;;;;;;8.80;1.50;;;6.80;99.90;;;;;;5054217;28;20044;-89
2022/01/20 12:39:29;;;;;;;13.48;2.13;;;6.90;99.90;;;;;;5070345;28;20025;-89
2022/01/20 12:42:00;;;;;;;14.55;1.95;;;7.00;99.90;;;;;;5054743;28;20078;-88
2022/01/20 12:44:46;;;;;;;12.85;1.50;;;7.20;99.90;;;;;;5069730;28;20540;-93
2022/01/20 12:47:12;;;;;;;10.13;2.15;;;7.20;99.90;;;;;;5053541;28;20033;-90
2022/01/20 12:49:38;;;;;;;10.73;1.88;;;7.30;99.90;;;;;;5069974;28;20021;-90
2022/01/20 12:52:06;;;;;;;10.68;1.95;;;7.20;99.90;;;;;;5054836;28;20025;-88
2022/01/20 12:54:34;;;;;;;13.63;2.00;;;7.20;99.90;;;;;;5056070;28;20079;-90
2022/01/20 12:57:03;;;;;;;11.02;1.80;;;7.20;99.90;;;;;;5061175;28;20124;-90
2022/01/20 12:59:34;;;;;;;15.85;2.65;;;7.20;99.90;;;;;;5080380;28;20013;-89
2022/01/20 13:02:33;;;;;;;18.65;2.63;;;7.20;99.90;;;;;;5078777;28;20142;-90
2022/01/20 13:05:01;;;;;;;11.75;2.72;;;7.10;99.90;;;;;;5061627;28;20112;-89
2022/01/20 13:07:29;;;;;;;13.55;2.22;;;7.10;99.90;;;;;;5075710;28;20024;-90
2022/01/20 13:10:04;;;;;;;14.55;2.40;;;7.10;99.90;;;;;;5081647;28;20005;-92
2022/01/20 13:12:41;;;;;;;13.52;2.28;;;7.10;99.90;;;;;;5066898;28;20025;-92
2022/01/20 13:15:17;;;;;;;11.45;2.38;;;7.00;99.90;;;;;;5061806;28;20025;-91
2022/01/20 13:17:45;;;;;;;23.05;3.30;;;7.00;99.90;;;;;;5060903;28;20486;-89
2022/01/20 13:20:20;;;;;;;9.85;2.45;;;7.00;99.90;;;;;;5063216;28;20021;-92
2022/01/20 13:22:56;;;;;;;14.15;2.80;;;7.00;99.90;;;;;;5060323;28;20025;-90
2022/01/20 13:25:28;;;;;;;8.85;2.03;;;7.00;99.90;;;;;;5060143;28;20457;-90
2022/01/20 13:27:57;;;;;;;11.23;2.10;;;7.00;99.90;;;;;;5060780;28;20458;-90
2022/01/20 13:30:28;;;;;;;19.13;5.40;;;7.10;99.90;;;;;;5060179;28;20498;-89
2022/01/20 13:32:57;;;;;;;15.18;2.58;;;7.20;99.90;;;;;;5060139;28;20050;-89
2022/01/20 13:35:23;;;;;;;13.88;2.35;;;7.30;99.90;;;;;;5076645;28;20446;-89
2022/01/20 13:38:00;;;;;;;13.32;2.30;;;7.40;99.90;;;;;;5059141;28;20025;-89
2022/01/20 13:40:26;;;;;;;11.75;2.33;;;7.50;99.90;;;;;;5060573;28;20056;-89
2022/01/20 13:45:38;;;;;;;18.10;2.80;;;7.70;99.90;;;;;;5065076;28;20087;-88
2022/01/20 13:48:04;;;;;;;15.43;2.42;;;7.80;99.90;;;;;;5066825;28;20194;-87
2022/01/20 13:50:34;;;;;;;12.15;1.90;;;7.80;99.90;;;;;;5100126;28;20024;-91
2022/01/20 13:53:09;;;;;;;12.00;3.25;;;7.80;99.90;;;;;;5094709;28;20021;-88
2022/01/20 13:55:37;;;;;;;16.42;2.88;;;7.80;99.90;;;;;;5086554;28;20032;-87
2022/01/20 13:58:04;;;;;;;15.43;2.72;;;7.80;99.90;;;;;;5061664;28;20025;-89
2022/01/20 14:00:32;;;;;;;12.80;2.10;;;7.80;99.90;;;;;;5031770;23;20051;-95
2022/01/20 14:02:58;;;;;;;16.38;3.17;;;7.70;99.90;;;;;;4966487;28;20045;-95
2022/01/20 14:05:33;;;;;;;15.68;3.15;;;7.70;99.90;;;;;;4966664;28;20030;-92
2022/01/20 14:08:03;;;;;;;10.57;1.65;;;7.60;99.90;;;;;;4964822;28;20027;-93
2022/01/20 14:10:30;;;;;;;14.05;2.83;;;7.50;99.90;;;;;;4962883;28;20384;-93
2022/01/20 14:12:56;;;;;;;13.13;2.25;;;7.50;99.90;;;;;;4964312;28;20089;-93